sensor_id;sensor_type;location;lat;lon;timestamp;P1;durP1;ratioP1;P2;durP2;ratioP2
32038;SDS011;18549;42.286;22.688;2022-08-07T00:01:04;7.12;;;6.53;;
32038;SDS011;18549;42.286;22.688;2022-08-07T00:03:31;7.60;;;6.85;;
32038;SDS011;18549;42.286;22.688;2022-08-07T00:05:56;7.75;;;6.95;;
32038;SDS011;18549;42.286;22.688;2022-08-07T00:08:23;6.80;;;6.20;;
32038;SDS011;18549;42.286;22.688;2022-08-07T00:10:49;7.22;;;6.37;;
32038;SDS011;18549;42.286;22.688;2022-08-07T00:13:17;6.40;;;5.87;;
32038;SDS011;18549;42.286;22.688;2022-08-07T00:15:44;9.75;;;6.43;;
32038;SDS011;18549;42.286;22.688;2022-08-07T00:18:10;8.43;;;6.20;;
32038;SDS011;18549;42.286;22.688;2022-08-07T00:20:36;6.70;;;6.10;;
32038;SDS011;18549;42.286;22.688;2022-08-07T00:23:03;6.80;;;5.55;;
32038;SDS011;18549;42.286;22.688;2022-08-07T00:25:32;6.82;;;6.10;;
32038;SDS011;18549;42.286;22.688;2022-08-07T00:27:58;7.05;;;6.32;;
32038;SDS011;18549;42.286;22.688;2022-08-07T00:30:24;8.15;;;6.65;;
32038;SDS011;18549;42.286;22.688;2022-08-07T00:32:50;19.92;;;6.25;;
32038;SDS011;18549;42.286;22.688;2022-08-07T00:35:19;7.97;;;6.72;;
32038;SDS011;18549;42.286;22.688;2022-08-07T00:37:45;6.93;;;5.60;;
32038;SDS011;18549;42.286;22.688;2022-08-07T00:40:12;8.10;;;6.78;;
32038;SDS011;18549;42.286;22.688;2022-08-07T00:42:38;12.45;;;5.93;;
32038;SDS011;18549;42.286;22.688;2022-08-07T00:45:05;6.57;;;5.97;;
32038;SDS011;18549;42.286;22.688;2022-08-07T00:47:32;10.50;;;5.50;;
32038;SDS011;18549;42.286;22.688;2022-08-07T00:49:57;7.00;;;5.62;;
32038;SDS011;18549;42.286;22.688;2022-08-07T00:52:23;8.00;;;6.37;;
32038;SDS011;18549;42.286;22.688;2022-08-07T00:54:49;12.05;;;6.62;;
32038;SDS011;18549;42.286;22.688;2022-08-07T00:57:16;8.93;;;5.80;;
32038;SDS011;18549;42.286;22.688;2022-08-07T00:59:42;7.22;;;5.85;;
32038;SDS011;18549;42.286;22.688;2022-08-07T01:02:08;10.93;;;5.37;;
32038;SDS011;18549;42.286;22.688;2022-08-07T01:04:36;7.62;;;5.07;;
32038;SDS011;18549;42.286;22.688;2022-08-07T01:07:01;8.32;;;5.75;;
32038;SDS011;18549;42.286;22.688;2022-08-07T01:09:27;7.97;;;6.12;;
32038;SDS011;18549;42.286;22.688;2022-08-07T01:11:53;7.28;;;6.00;;
32038;SDS011;18549;42.286;22.688;2022-08-07T01:14:19;7.22;;;6.05;;
32038;SDS011;18549;42.286;22.688;2022-08-07T01:16:45;5.97;;;5.37;;
32038;SDS011;18549;42.286;22.688;2022-08-07T01:19:11;8.10;;;5.57;;
32038;SDS011;18549;42.286;22.688;2022-08-07T01:21:37;9.05;;;6.47;;
32038;SDS011;18549;42.286;22.688;2022-08-07T01:24:04;8.82;;;6.20;;
32038;SDS011;18549;42.286;22.688;2022-08-07T01:26:30;6.57;;;5.87;;
32038;SDS011;18549;42.286;22.688;2022-08-07T01:28:57;6.18;;;5.57;;
32038;SDS011;18549;42.286;22.688;2022-08-07T01:31:23;7.78;;;5.70;;
32038;SDS011;18549;42.286;22.688;2022-08-07T01:33:58;7.45;;;6.03;;
32038;SDS011;18549;42.286;22.688;2022-08-07T01:36:25;6.80;;;5.97;;
32038;SDS011;18549;42.286;22.688;2022-08-07T01:38:52;7.20;;;5.30;;
32038;SDS011;18549;42.286;22.688;2022-08-07T01:41:18;6.43;;;5.78;;
32038;SDS011;18549;42.286;22.688;2022-08-07T01:43:45;10.18;;;6.45;;
32038;SDS011;18549;42.286;22.688;2022-08-07T01:46:11;7.70;;;6.10;;
32038;SDS011;18549;42.286;22.688;2022-08-07T01:48:42;7.30;;;6.25;;
32038;SDS011;18549;42.286;22.688;2022-08-07T01:51:12;7.53;;;5.85;;
32038;SDS011;18549;42.286;22.688;2022-08-07T01:53:41;7.12;;;6.28;;
32038;SDS011;18549;42.286;22.688;2022-08-07T01:56:21;8.63;;;6.45;;
32038;SDS011;18549;42.286;22.688;2022-08-07T01:58:57;7.15;;;6.20;;
32038;SDS011;18549;42.286;22.688;2022-08-07T02:01:27;8.07;;;6.35;;
32038;SDS011;18549;42.286;22.688;2022-08-07T02:04:00;9.25;;;7.57;;
32038;SDS011;18549;42.286;22.688;2022-08-07T02:06:31;8.80;;;7.28;;
32038;SDS011;18549;42.286;22.688;2022-08-07T02:09:01;9.23;;;7.05;;
32038;SDS011;18549;42.286;22.688;2022-08-07T02:11:34;7.72;;;6.90;;
32038;SDS011;18549;42.286;22.688;2022-08-07T02:14:02;8.80;;;6.75;;
32038;SDS011;18549;42.286;22.688;2022-08-07T02:16:31;8.27;;;6.22;;
32038;SDS011;18549;42.286;22.688;2022-08-07T02:19:00;7.32;;;6.47;;
32038;SDS011;18549;42.286;22.688;2022-08-07T02:21:29;7.47;;;6.68;;
32038;SDS011;18549;42.286;22.688;2022-08-07T02:23:56;9.15;;;6.25;;
32038;SDS011;18549;42.286;22.688;2022-08-07T02:26:23;7.03;;;6.15;;
32038;SDS011;18549;42.286;22.688;2022-08-07T02:28:51;10.38;;;6.40;;
32038;SDS011;18549;42.286;22.688;2022-08-07T02:31:17;8.05;;;6.37;;
32038;SDS011;18549;42.286;22.688;2022-08-07T02:33:44;7.20;;;6.43;;
32038;SDS011;18549;42.286;22.688;2022-08-07T02:36:10;7.25;;;6.45;;
32038;SDS011;18549;42.286;22.688;2022-08-07T02:38:37;10.88;;;7.05;;
32038;SDS011;18549;42.286;22.688;2022-08-07T02:41:04;8.38;;;5.90;;
32038;SDS011;18549;42.286;22.688;2022-08-07T02:43:30;7.93;;;6.30;;
32038;SDS011;18549;42.286;22.688;2022-08-07T02:45:58;9.32;;;6.60;;
32038;SDS011;18549;42.286;22.688;2022-08-07T02:48:25;8.27;;;6.35;;
32038;SDS011;18549;42.286;22.688;2022-08-07T02:50:52;10.38;;;6.35;;
32038;SDS011;18549;42.286;22.688;2022-08-07T02:53:30;7.75;;;6.37;;
32038;SDS011;18549;42.286;22.688;2022-08-07T02:55:58;13.27;;;7.18;;
32038;SDS011;18549;42.286;22.688;2022-08-07T02:58:27;7.00;;;6.28;;
32038;SDS011;18549;42.286;22.688;2022-08-07T03:00:56;10.35;;;6.65;;
32038;SDS011;18549;42.286;22.688;2022-08-07T03:03:24;8.55;;;6.85;;
32038;SDS011;18549;42.286;22.688;2022-08-07T03:05:52;8.60;;;7.65;;
32038;SDS011;18549;42.286;22.688;2022-08-07T03:08:20;13.68;;;7.07;;
32038;SDS011;18549;42.286;22.688;2022-08-07T03:10:48;11.07;;;6.47;;
32038;SDS011;18549;42.286;22.688;2022-08-07T03:13:14;10.90;;;6.32;;
32038;SDS011;18549;42.286;22.688;2022-08-07T03:15:40;7.45;;;6.43;;
32038;SDS011;18549;42.286;22.688;2022-08-07T03:18:07;7.18;;;5.87;;
32038;SDS011;18549;42.286;22.688;2022-08-07T03:20:33;7.15;;;6.35;;
32038;SDS011;18549;42.286;22.688;2022-08-07T03:23:00;7.20;;;6.20;;
32038;SDS011;18549;42.286;22.688;2022-08-07T03:25:26;11.77;;;6.85;;
32038;SDS011;18549;42.286;22.688;2022-08-07T03:27:53;8.73;;;6.60;;
32038;SDS011;18549;42.286;22.688;2022-08-07T03:30:21;13.18;;;6.90;;
32038;SDS011;18549;42.286;22.688;2022-08-07T03:32:47;7.60;;;6.80;;
32038;SDS011;18549;42.286;22.688;2022-08-07T03:35:15;7.10;;;6.18;;
32038;SDS011;18549;42.286;22.688;2022-08-07T03:37:44;12.73;;;7.57;;
32038;SDS011;18549;42.286;22.688;2022-08-07T03:40:12;8.63;;;6.75;;
32038;SDS011;18549;42.286;22.688;2022-08-07T03:42:38;11.65;;;7.22;;
32038;SDS011;18549;42.286;22.688;2022-08-07T03:45:04;9.13;;;6.28;;
32038;SDS011;18549;42.286;22.688;2022-08-07T03:47:30;9.02;;;7.10;;
32038;SDS011;18549;42.286;22.688;2022-08-07T03:49:56;8.05;;;6.53;;
32038;SDS011;18549;42.286;22.688;2022-08-07T03:52:24;7.15;;;6.20;;
32038;SDS011;18549;42.286;22.688;2022-08-07T03:54:51;8.45;;;6.53;;
32038;SDS011;18549;42.286;22.688;2022-08-07T03:57:18;6.75;;;6.07;;
32038;SDS011;18549;42.286;22.688;2022-08-07T03:59:44;7.97;;;6.85;;
32038;SDS011;18549;42.286;22.688;2022-08-07T04:02:10;8.32;;;7.00;;
32038;SDS011;18549;42.286;22.688;2022-08-07T04:04:40;7.50;;;5.97;;
32038;SDS011;18549;42.286;22.688;2022-08-07T04:07:06;7.25;;;6.47;;
32038;SDS011;18549;42.286;22.688;2022-08-07T04:09:32;11.48;;;6.32;;
32038;SDS011;18549;42.286;22.688;2022-08-07T04:12:01;7.22;;;5.82;;
32038;SDS011;18549;42.286;22.688;2022-08-07T04:14:31;9.38;;;6.53;;
32038;SDS011;18549;42.286;22.688;2022-08-07T04:16:58;13.32;;;6.20;;
32038;SDS011;18549;42.286;22.688;2022-08-07T04:19:24;6.78;;;5.35;;
32038;SDS011;18549;42.286;22.688;2022-08-07T04:21:50;12.32;;;5.68;;
32038;SDS011;18549;42.286;22.688;2022-08-07T04:24:17;9.77;;;6.25;;
32038;SDS011;18549;42.286;22.688;2022-08-07T04:26:43;6.57;;;5.97;;
32038;SDS011;18549;42.286;22.688;2022-08-07T04:29:10;8.60;;;6.68;;
32038;SDS011;18549;42.286;22.688;2022-08-07T04:31:37;11.68;;;6.45;;
32038;SDS011;18549;42.286;22.688;2022-08-07T04:34:03;10.00;;;7.07;;
32038;SDS011;18549;42.286;22.688;2022-08-07T04:36:30;9.02;;;6.80;;
32038;SDS011;18549;42.286;22.688;2022-08-07T04:38:56;7.90;;;6.75;;
32038;SDS011;18549;42.286;22.688;2022-08-07T04:41:22;6.80;;;5.72;;
32038;SDS011;18549;42.286;22.688;2022-08-07T04:43:47;9.35;;;8.25;;
32038;SDS011;18549;42.286;22.688;2022-08-07T04:49:01;10.93;;;8.45;;
32038;SDS011;18549;42.286;22.688;2022-08-07T04:54:35;23.42;;;9.63;;
32038;SDS011;18549;42.286;22.688;2022-08-07T05:02:27;7.95;;;6.57;;
32038;SDS011;18549;42.286;22.688;2022-08-07T05:08:06;5.62;;;4.97;;
32038;SDS011;18549;42.286;22.688;2022-08-07T05:10:46;14.68;;;6.80;;
32038;SDS011;18549;42.286;22.688;2022-08-07T05:13:26;9.38;;;6.05;;
32038;SDS011;18549;42.286;22.688;2022-08-07T05:15:54;9.75;;;6.55;;
32038;SDS011;18549;42.286;22.688;2022-08-07T05:18:27;12.13;;;7.12;;
32038;SDS011;18549;42.286;22.688;2022-08-07T05:21:01;8.77;;;6.95;;
32038;SDS011;18549;42.286;22.688;2022-08-07T05:23:32;10.02;;;6.68;;
32038;SDS011;18549;42.286;22.688;2022-08-07T05:26:03;9.68;;;6.03;;
32038;SDS011;18549;42.286;22.688;2022-08-07T05:28:32;12.13;;;6.65;;
32038;SDS011;18549;42.286;22.688;2022-08-07T05:30:59;8.30;;;6.70;;
32038;SDS011;18549;42.286;22.688;2022-08-07T05:33:26;16.25;;;6.70;;
32038;SDS011;18549;42.286;22.688;2022-08-07T05:35:53;12.45;;;7.05;;
32038;SDS011;18549;42.286;22.688;2022-08-07T05:38:20;8.45;;;7.22;;
32038;SDS011;18549;42.286;22.688;2022-08-07T05:40:47;9.95;;;6.25;;
32038;SDS011;18549;42.286;22.688;2022-08-07T05:43:13;9.90;;;6.32;;
32038;SDS011;18549;42.286;22.688;2022-08-07T05:45:39;10.85;;;7.55;;
32038;SDS011;18549;42.286;22.688;2022-08-07T05:48:08;10.75;;;6.55;;
32038;SDS011;18549;42.286;22.688;2022-08-07T05:50:33;11.35;;;6.60;;
32038;SDS011;18549;42.286;22.688;2022-08-07T05:53:00;7.95;;;5.93;;
32038;SDS011;18549;42.286;22.688;2022-08-07T05:55:27;10.60;;;7.45;;
32038;SDS011;18549;42.286;22.688;2022-08-07T05:57:54;7.50;;;6.60;;
32038;SDS011;18549;42.286;22.688;2022-08-07T06:00:22;7.07;;;6.35;;
32038;SDS011;18549;42.286;22.688;2022-08-07T06:02:49;12.13;;;6.65;;
32038;SDS011;18549;42.286;22.688;2022-08-07T06:05:17;14.15;;;7.18;;
32038;SDS011;18549;42.286;22.688;2022-08-07T06:07:44;9.30;;;6.78;;
32038;SDS011;18549;42.286;22.688;2022-08-07T06:10:11;13.75;;;7.05;;
32038;SDS011;18549;42.286;22.688;2022-08-07T06:12:36;12.07;;;6.68;;
32038;SDS011;18549;42.286;22.688;2022-08-07T06:15:02;11.50;;;5.72;;
32038;SDS011;18549;42.286;22.688;2022-08-07T06:17:29;13.25;;;6.03;;
32038;SDS011;18549;42.286;22.688;2022-08-07T06:19:56;5.70;;;5.05;;
32038;SDS011;18549;42.286;22.688;2022-08-07T06:22:24;11.07;;;5.72;;
32038;SDS011;18549;42.286;22.688;2022-08-07T06:24:50;8.93;;;5.90;;
32038;SDS011;18549;42.286;22.688;2022-08-07T06:27:22;9.85;;;5.87;;
32038;SDS011;18549;42.286;22.688;2022-08-07T06:29:48;8.35;;;5.30;;
32038;SDS011;18549;42.286;22.688;2022-08-07T06:32:14;8.95;;;5.75;;
32038;SDS011;18549;42.286;22.688;2022-08-07T06:34:40;7.22;;;6.10;;
32038;SDS011;18549;42.286;22.688;2022-08-07T06:37:07;9.80;;;6.07;;
32038;SDS011;18549;42.286;22.688;2022-08-07T06:39:32;7.97;;;6.05;;
32038;SDS011;18549;42.286;22.688;2022-08-07T06:42:32;9.38;;;7.22;;
32038;SDS011;18549;42.286;22.688;2022-08-07T06:45:01;14.77;;;7.65;;
32038;SDS011;18549;42.286;22.688;2022-08-07T06:47:27;7.93;;;6.12;;
32038;SDS011;18549;42.286;22.688;2022-08-07T06:49:52;11.88;;;6.60;;
32038;SDS011;18549;42.286;22.688;2022-08-07T06:52:18;11.23;;;6.53;;
32038;SDS011;18549;42.286;22.688;2022-08-07T06:54:45;6.30;;;5.45;;
32038;SDS011;18549;42.286;22.688;2022-08-07T06:57:14;8.88;;;6.68;;
32038;SDS011;18549;42.286;22.688;2022-08-07T06:59:40;9.25;;;7.05;;
32038;SDS011;18549;42.286;22.688;2022-08-07T07:02:14;9.70;;;6.30;;
32038;SDS011;18549;42.286;22.688;2022-08-07T07:04:44;6.78;;;5.62;;
32038;SDS011;18549;42.286;22.688;2022-08-07T07:07:10;8.65;;;5.72;;
32038;SDS011;18549;42.286;22.688;2022-08-07T07:09:43;7.18;;;5.57;;
32038;SDS011;18549;42.286;22.688;2022-08-07T07:15:02;20.55;;;5.15;;
32038;SDS011;18549;42.286;22.688;2022-08-07T07:20:33;5.95;;;5.20;;
32038;SDS011;18549;42.286;22.688;2022-08-07T07:23:02;9.75;;;4.72;;
32038;SDS011;18549;42.286;22.688;2022-08-07T07:25:29;5.50;;;4.78;;
32038;SDS011;18549;42.286;22.688;2022-08-07T07:28:00;12.60;;;4.55;;
32038;SDS011;18549;42.286;22.688;2022-08-07T07:30:34;4.95;;;4.53;;
32038;SDS011;18549;42.286;22.688;2022-08-07T07:33:02;8.70;;;4.70;;
32038;SDS011;18549;42.286;22.688;2022-08-07T07:35:30;6.25;;;4.53;;
32038;SDS011;18549;42.286;22.688;2022-08-07T07:37:59;7.03;;;3.95;;
32038;SDS011;18549;42.286;22.688;2022-08-07T07:40:27;5.80;;;5.20;;
32038;SDS011;18549;42.286;22.688;2022-08-07T07:42:55;8.98;;;5.20;;
32038;SDS011;18549;42.286;22.688;2022-08-07T07:45:23;5.37;;;4.87;;
32038;SDS011;18549;42.286;22.688;2022-08-07T07:47:50;6.05;;;5.00;;
32038;SDS011;18549;42.286;22.688;2022-08-07T07:50:17;7.18;;;5.00;;
32038;SDS011;18549;42.286;22.688;2022-08-07T07:52:45;6.65;;;5.07;;
32038;SDS011;18549;42.286;22.688;2022-08-07T07:55:12;9.27;;;4.90;;
32038;SDS011;18549;42.286;22.688;2022-08-07T07:57:42;10.85;;;5.35;;
32038;SDS011;18549;42.286;22.688;2022-08-07T08:00:08;7.28;;;5.68;;
32038;SDS011;18549;42.286;22.688;2022-08-07T08:02:36;5.95;;;5.35;;
32038;SDS011;18549;42.286;22.688;2022-08-07T08:05:06;7.37;;;5.25;;
32038;SDS011;18549;42.286;22.688;2022-08-07T08:07:33;8.20;;;7.07;;
32038;SDS011;18549;42.286;22.688;2022-08-07T08:10:01;14.57;;;4.87;;
32038;SDS011;18549;42.286;22.688;2022-08-07T08:12:27;6.28;;;4.78;;
32038;SDS011;18549;42.286;22.688;2022-08-07T08:14:54;8.57;;;4.60;;
32038;SDS011;18549;42.286;22.688;2022-08-07T08:17:19;7.55;;;5.12;;
32038;SDS011;18549;42.286;22.688;2022-08-07T08:19:47;7.07;;;5.32;;
32038;SDS011;18549;42.286;22.688;2022-08-07T08:22:17;6.95;;;4.55;;
32038;SDS011;18549;42.286;22.688;2022-08-07T08:25:02;6.00;;;5.47;;
32038;SDS011;18549;42.286;22.688;2022-08-07T08:27:50;7.40;;;4.95;;
32038;SDS011;18549;42.286;22.688;2022-08-07T08:30:18;5.78;;;5.07;;
32038;SDS011;18549;42.286;22.688;2022-08-07T08:32:45;6.00;;;4.85;;
32038;SDS011;18549;42.286;22.688;2022-08-07T08:35:16;7.57;;;4.85;;
32038;SDS011;18549;42.286;22.688;2022-08-07T08:37:46;10.20;;;5.43;;
32038;SDS011;18549;42.286;22.688;2022-08-07T08:40:13;5.85;;;5.00;;
32038;SDS011;18549;42.286;22.688;2022-08-07T08:43:20;10.02;;;5.53;;
32038;SDS011;18549;42.286;22.688;2022-08-07T08:46:08;7.72;;;5.37;;
32038;SDS011;18549;42.286;22.688;2022-08-07T08:49:00;12.30;;;5.30;;
32038;SDS011;18549;42.286;22.688;2022-08-07T08:51:39;7.70;;;4.70;;
32038;SDS011;18549;42.286;22.688;2022-08-07T08:54:27;5.53;;;4.72;;
32038;SDS011;18549;42.286;22.688;2022-08-07T08:57:00;6.35;;;4.95;;
32038;SDS011;18549;42.286;22.688;2022-08-07T08:59:37;11.02;;;4.90;;
32038;SDS011;18549;42.286;22.688;2022-08-07T09:02:18;5.30;;;4.28;;
32038;SDS011;18549;42.286;22.688;2022-08-07T09:05:11;6.30;;;4.57;;
32038;SDS011;18549;42.286;22.688;2022-08-07T09:07:43;5.28;;;4.78;;
32038;SDS011;18549;42.286;22.688;2022-08-07T09:10:19;5.97;;;5.30;;
32038;SDS011;18549;42.286;22.688;2022-08-07T09:13:07;7.45;;;5.10;;
32038;SDS011;18549;42.286;22.688;2022-08-07T09:18:21;8.40;;;5.40;;
32038;SDS011;18549;42.286;22.688;2022-08-07T09:32:01;7.22;;;5.45;;
32038;SDS011;18549;42.286;22.688;2022-08-07T09:35:06;6.22;;;5.10;;
32038;SDS011;18549;42.286;22.688;2022-08-07T09:40:36;7.85;;;5.25;;
32038;SDS011;18549;42.286;22.688;2022-08-07T09:43:57;6.25;;;5.28;;
32038;SDS011;18549;42.286;22.688;2022-08-07T09:46:40;6.40;;;5.65;;
32038;SDS011;18549;42.286;22.688;2022-08-07T09:54:46;6.45;;;5.62;;
32038;SDS011;18549;42.286;22.688;2022-08-07T09:57:21;6.70;;;5.50;;
32038;SDS011;18549;42.286;22.688;2022-08-07T10:08:52;10.95;;;6.47;;
32038;SDS011;18549;42.286;22.688;2022-08-07T10:11:54;7.50;;;5.85;;
32038;SDS011;18549;42.286;22.688;2022-08-07T10:20:27;10.60;;;6.15;;
32038;SDS011;18549;42.286;22.688;2022-08-07T10:28:43;9.00;;;6.32;;
32038;SDS011;18549;42.286;22.688;2022-08-07T10:45:03;6.95;;;5.22;;
32038;SDS011;18549;42.286;22.688;2022-08-07T10:47:35;7.57;;;5.60;;
32038;SDS011;18549;42.286;22.688;2022-08-07T10:50:11;12.13;;;5.75;;
32038;SDS011;18549;42.286;22.688;2022-08-07T10:52:46;15.80;;;6.07;;
32038;SDS011;18549;42.286;22.688;2022-08-07T10:55:34;7.05;;;5.25;;
32038;SDS011;18549;42.286;22.688;2022-08-07T11:09:33;9.93;;;5.22;;
32038;SDS011;18549;42.286;22.688;2022-08-07T11:12:05;8.70;;;5.85;;
32038;SDS011;18549;42.286;22.688;2022-08-07T11:14:39;11.75;;;5.22;;
32038;SDS011;18549;42.286;22.688;2022-08-07T11:17:20;6.00;;;5.28;;
32038;SDS011;18549;42.286;22.688;2022-08-07T11:19:57;8.35;;;4.47;;
32038;SDS011;18549;42.286;22.688;2022-08-07T11:25:17;7.55;;;4.57;;
32038;SDS011;18549;42.286;22.688;2022-08-07T11:28:05;5.68;;;4.40;;
32038;SDS011;18549;42.286;22.688;2022-08-07T11:30:40;13.30;;;5.12;;
32038;SDS011;18549;42.286;22.688;2022-08-07T11:36:14;6.28;;;5.00;;
32038;SDS011;18549;42.286;22.688;2022-08-07T11:41:32;9.40;;;5.20;;
32038;SDS011;18549;42.286;22.688;2022-08-07T11:44:21;8.32;;;4.87;;
32038;SDS011;18549;42.286;22.688;2022-08-07T11:47:08;10.43;;;5.05;;
32038;SDS011;18549;42.286;22.688;2022-08-07T11:55:39;7.40;;;5.03;;
32038;SDS011;18549;42.286;22.688;2022-08-07T12:06:53;6.65;;;5.28;;
32038;SDS011;18549;42.286;22.688;2022-08-07T12:12:07;11.95;;;6.20;;
32038;SDS011;18549;42.286;22.688;2022-08-07T12:14:44;7.22;;;5.87;;
32038;SDS011;18549;42.286;22.688;2022-08-07T12:17:11;7.22;;;5.68;;
32038;SDS011;18549;42.286;22.688;2022-08-07T12:25:02;5.72;;;5.18;;
32038;SDS011;18549;42.286;22.688;2022-08-07T12:28:03;9.43;;;5.18;;
32038;SDS011;18549;42.286;22.688;2022-08-07T12:30:35;5.95;;;5.37;;
32038;SDS011;18549;42.286;22.688;2022-08-07T12:33:04;7.18;;;4.80;;
32038;SDS011;18549;42.286;22.688;2022-08-07T12:35:37;6.72;;;4.93;;
32038;SDS011;18549;42.286;22.688;2022-08-07T12:38:06;6.55;;;5.45;;
32038;SDS011;18549;42.286;22.688;2022-08-07T12:40:33;6.53;;;5.60;;
32038;SDS011;18549;42.286;22.688;2022-08-07T12:43:01;5.45;;;4.95;;
32038;SDS011;18549;42.286;22.688;2022-08-07T12:45:35;8.48;;;4.95;;
32038;SDS011;18549;42.286;22.688;2022-08-07T12:48:18;10.20;;;5.68;;
32038;SDS011;18549;42.286;22.688;2022-08-07T12:51:09;5.60;;;4.80;;
32038;SDS011;18549;42.286;22.688;2022-08-07T12:53:42;4.68;;;4.18;;
32038;SDS011;18549;42.286;22.688;2022-08-07T12:56:28;8.77;;;4.55;;
32038;SDS011;18549;42.286;22.688;2022-08-07T12:58:57;7.45;;;4.45;;
32038;SDS011;18549;42.286;22.688;2022-08-07T13:06:51;7.57;;;4.35;;
32038;SDS011;18549;42.286;22.688;2022-08-07T13:20:51;6.22;;;5.55;;
32038;SDS011;18549;42.286;22.688;2022-08-07T13:23:41;7.65;;;6.18;;
32038;SDS011;18549;42.286;22.688;2022-08-07T13:26:18;16.58;;;5.70;;
32038;SDS011;18549;42.286;22.688;2022-08-07T13:28:58;6.82;;;5.53;;
32038;SDS011;18549;42.286;22.688;2022-08-07T13:40:08;13.35;;;4.78;;
32038;SDS011;18549;42.286;22.688;2022-08-07T13:42:40;14.43;;;5.37;;
32038;SDS011;18549;42.286;22.688;2022-08-07T13:45:07;19.35;;;6.30;;
32038;SDS011;18549;42.286;22.688;2022-08-07T13:47:35;17.40;;;6.18;;
32038;SDS011;18549;42.286;22.688;2022-08-07T13:50:03;17.62;;;6.20;;
32038;SDS011;18549;42.286;22.688;2022-08-07T13:52:32;10.40;;;6.12;;
32038;SDS011;18549;42.286;22.688;2022-08-07T13:55:04;13.13;;;6.25;;
32038;SDS011;18549;42.286;22.688;2022-08-07T13:57:45;16.60;;;5.68;;
32038;SDS011;18549;42.286;22.688;2022-08-07T14:00:13;12.95;;;5.90;;
32038;SDS011;18549;42.286;22.688;2022-08-07T14:02:45;14.82;;;6.22;;
32038;SDS011;18549;42.286;22.688;2022-08-07T14:05:19;17.25;;;5.93;;
32038;SDS011;18549;42.286;22.688;2022-08-07T14:07:47;16.42;;;6.07;;
32038;SDS011;18549;42.286;22.688;2022-08-07T14:10:15;20.08;;;7.28;;
32038;SDS011;18549;42.286;22.688;2022-08-07T14:12:47;12.82;;;6.32;;
32038;SDS011;18549;42.286;22.688;2022-08-07T14:15:43;21.12;;;6.43;;
32038;SDS011;18549;42.286;22.688;2022-08-07T14:18:20;23.33;;;6.60;;
32038;SDS011;18549;42.286;22.688;2022-08-07T14:21:15;16.75;;;6.53;;
32038;SDS011;18549;42.286;22.688;2022-08-07T14:24:05;16.73;;;7.18;;
32038;SDS011;18549;42.286;22.688;2022-08-07T14:26:35;13.85;;;6.30;;
32038;SDS011;18549;42.286;22.688;2022-08-07T14:29:07;16.50;;;5.87;;
32038;SDS011;18549;42.286;22.688;2022-08-07T14:31:35;11.93;;;6.47;;
32038;SDS011;18549;42.286;22.688;2022-08-07T14:34:02;8.23;;;5.50;;
32038;SDS011;18549;42.286;22.688;2022-08-07T14:36:31;10.02;;;6.40;;
32038;SDS011;18549;42.286;22.688;2022-08-07T14:39:01;7.87;;;5.50;;
32038;SDS011;18549;42.286;22.688;2022-08-07T14:41:28;9.77;;;6.37;;
32038;SDS011;18549;42.286;22.688;2022-08-07T14:44:01;10.50;;;6.00;;
32038;SDS011;18549;42.286;22.688;2022-08-07T14:46:32;16.65;;;5.85;;
32038;SDS011;18549;42.286;22.688;2022-08-07T14:49:01;16.58;;;6.50;;
32038;SDS011;18549;42.286;22.688;2022-08-07T14:51:30;7.68;;;5.87;;
32038;SDS011;18549;42.286;22.688;2022-08-07T14:53:58;6.37;;;5.15;;
32038;SDS011;18549;42.286;22.688;2022-08-07T14:56:26;6.37;;;5.35;;
32038;SDS011;18549;42.286;22.688;2022-08-07T14:58:55;6.72;;;5.12;;
32038;SDS011;18549;42.286;22.688;2022-08-07T15:01:26;7.55;;;5.57;;
32038;SDS011;18549;42.286;22.688;2022-08-07T15:04:02;11.52;;;5.62;;
32038;SDS011;18549;42.286;22.688;2022-08-07T15:06:31;5.95;;;5.05;;
32038;SDS011;18549;42.286;22.688;2022-08-07T15:09:02;8.93;;;5.20;;
32038;SDS011;18549;42.286;22.688;2022-08-07T15:11:30;6.75;;;5.22;;
32038;SDS011;18549;42.286;22.688;2022-08-07T15:14:00;6.47;;;5.62;;
32038;SDS011;18549;42.286;22.688;2022-08-07T15:16:41;10.73;;;6.07;;
32038;SDS011;18549;42.286;22.688;2022-08-07T15:19:14;7.93;;;5.22;;
32038;SDS011;18549;42.286;22.688;2022-08-07T15:21:46;11.18;;;4.47;;
32038;SDS011;18549;42.286;22.688;2022-08-07T15:24:19;6.47;;;4.68;;
32038;SDS011;18549;42.286;22.688;2022-08-07T15:27:09;5.45;;;4.90;;
32038;SDS011;18549;42.286;22.688;2022-08-07T15:29:37;9.52;;;6.70;;
32038;SDS011;18549;42.286;22.688;2022-08-07T15:32:04;7.75;;;6.72;;
32038;SDS011;18549;42.286;22.688;2022-08-07T15:34:45;6.15;;;5.30;;
32038;SDS011;18549;42.286;22.688;2022-08-07T15:37:13;17.15;;;4.85;;
32038;SDS011;18549;42.286;22.688;2022-08-07T15:39:45;9.32;;;4.90;;
32038;SDS011;18549;42.286;22.688;2022-08-07T15:45:05;11.25;;;4.68;;
32038;SDS011;18549;42.286;22.688;2022-08-07T15:47:35;7.30;;;4.35;;
32038;SDS011;18549;42.286;22.688;2022-08-07T15:50:07;7.18;;;5.10;;
32038;SDS011;18549;42.286;22.688;2022-08-07T15:52:40;9.05;;;5.22;;
32038;SDS011;18549;42.286;22.688;2022-08-07T15:55:09;8.25;;;5.53;;
32038;SDS011;18549;42.286;22.688;2022-08-07T15:57:38;6.47;;;5.30;;
32038;SDS011;18549;42.286;22.688;2022-08-07T16:00:08;8.02;;;5.60;;
32038;SDS011;18549;42.286;22.688;2022-08-07T16:02:38;9.00;;;6.07;;
32038;SDS011;18549;42.286;22.688;2022-08-07T16:05:15;11.27;;;6.07;;
32038;SDS011;18549;42.286;22.688;2022-08-07T16:07:57;11.35;;;6.03;;
32038;SDS011;18549;42.286;22.688;2022-08-07T16:10:28;8.65;;;5.07;;
32038;SDS011;18549;42.286;22.688;2022-08-07T16:23:46;9.95;;;6.93;;
32038;SDS011;18549;42.286;22.688;2022-08-07T16:26:30;9.57;;;7.05;;
32038;SDS011;18549;42.286;22.688;2022-08-07T16:29:08;7.18;;;6.22;;
32038;SDS011;18549;42.286;22.688;2022-08-07T16:34:31;6.68;;;5.78;;
32038;SDS011;18549;42.286;22.688;2022-08-07T17:01:59;8.80;;;6.60;;
32038;SDS011;18549;42.286;22.688;2022-08-07T17:07:23;10.48;;;7.10;;
32038;SDS011;18549;42.286;22.688;2022-08-07T17:10:00;7.65;;;5.45;;
32038;SDS011;18549;42.286;22.688;2022-08-07T17:21:16;9.77;;;6.90;;
32038;SDS011;18549;42.286;22.688;2022-08-07T17:26:16;7.20;;;5.87;;
32038;SDS011;18549;42.286;22.688;2022-08-07T17:28:53;8.25;;;6.60;;
32038;SDS011;18549;42.286;22.688;2022-08-07T17:37:16;9.85;;;7.30;;
32038;SDS011;18549;42.286;22.688;2022-08-07T17:40:05;8.45;;;6.90;;
32038;SDS011;18549;42.286;22.688;2022-08-07T17:42:54;8.80;;;7.12;;
32038;SDS011;18549;42.286;22.688;2022-08-07T17:45:40;9.15;;;7.35;;
32038;SDS011;18549;42.286;22.688;2022-08-07T17:48:14;9.65;;;7.03;;
32038;SDS011;18549;42.286;22.688;2022-08-07T17:59:30;8.55;;;7.65;;
32038;SDS011;18549;42.286;22.688;2022-08-07T18:02:10;8.18;;;7.30;;
32038;SDS011;18549;42.286;22.688;2022-08-07T18:18:25;8.73;;;7.82;;
32038;SDS011;18549;42.286;22.688;2022-08-07T18:21:05;11.48;;;7.80;;
32038;SDS011;18549;42.286;22.688;2022-08-07T18:23:51;9.38;;;7.40;;
32038;SDS011;18549;42.286;22.688;2022-08-07T18:31:51;10.10;;;7.65;;
32038;SDS011;18549;42.286;22.688;2022-08-07T18:37:34;13.77;;;7.90;;
32038;SDS011;18549;42.286;22.688;2022-08-07T18:43:19;11.50;;;7.12;;
32038;SDS011;18549;42.286;22.688;2022-08-07T18:46:04;10.30;;;7.53;;
32038;SDS011;18549;42.286;22.688;2022-08-07T18:48:41;9.70;;;7.60;;
32038;SDS011;18549;42.286;22.688;2022-08-07T18:51:26;12.05;;;9.32;;
32038;SDS011;18549;42.286;22.688;2022-08-07T18:56:45;12.45;;;10.25;;
32038;SDS011;18549;42.286;22.688;2022-08-07T19:07:34;10.73;;;6.87;;